createdAt,value
2018-03-28T00:00:29.356Z,60.78
2018-03-28T00:05:49.540Z,61.08
2018-03-28T00:08:17.022Z,61.07
2018-03-28T00:10:44.471Z,61.20
2018-03-28T00:13:11.952Z,61.06
2018-03-28T00:15:39.386Z,61.39
2018-03-28T00:18:06.886Z,62.13
2018-03-28T00:20:34.364Z,61.91
2018-03-28T00:23:01.878Z,62.05
2018-03-28T00:25:29.342Z,62.23
2018-03-28T00:27:56.824Z,62.24
2018-03-28T00:30:24.484Z,62.50
2018-03-28T00:32:51.916Z,62.86
2018-03-28T00:35:19.434Z,62.95
2018-03-28T00:37:46.916Z,62.98
2018-03-28T00:40:14.856Z,63.35
2018-03-28T00:42:42.336Z,63.26
2018-03-28T00:45:09.794Z,63.73
2018-03-28T00:47:37.270Z,63.86
2018-03-28T00:50:05.524Z,63.77
2018-03-28T00:52:47.217Z,63.68
2018-03-28T00:55:14.694Z,63.92
2018-03-28T00:57:42.148Z,63.78
2018-03-28T01:00:11.463Z,64.81
2018-03-28T01:02:53.166Z,64.75
2018-03-28T01:05:20.645Z,64.92
2018-03-28T01:07:48.154Z,65.03
2018-03-28T01:10:15.648Z,65.03
2018-03-28T01:12:43.230Z,65.38
2018-03-28T01:15:10.779Z,65.20
2018-03-28T01:17:38.344Z,64.92
2018-03-28T01:20:05.912Z,65.45
2018-03-28T01:22:48.047Z,65.69
2018-03-28T01:25:15.660Z,65.51
2018-03-28T01:27:43.228Z,65.99
2018-03-28T01:30:10.732Z,66.18
2018-03-28T01:32:38.280Z,66.05
2018-03-28T01:35:06.022Z,66.03
2018-03-28T01:37:33.876Z,66.12
2018-03-28T01:40:01.344Z,66.58
2018-03-28T01:42:43.102Z,66.36
2018-03-28T01:45:10.588Z,66.33
2018-03-28T01:47:38.223Z,67.07
2018-03-28T01:50:05.733Z,66.95
2018-03-28T01:52:33.545Z,67.07
2018-03-28T01:55:01.067Z,67.65
2018-03-28T01:57:28.553Z,67.74
2018-03-28T01:59:56.047Z,67.60
2018-03-28T02:02:23.540Z,67.68
2018-03-28T02:04:51.056Z,68.10
2018-03-28T02:07:18.616Z,68.38
2018-03-28T02:09:46.199Z,68.15
2018-03-28T02:12:14.517Z,68.02
2018-03-28T02:14:42.081Z,68.22
2018-03-28T02:17:09.672Z,68.08
2018-03-28T02:19:37.412Z,68.25
2018-03-28T02:24:57.445Z,68.20
2018-03-28T02:27:24.941Z,68.23
2018-03-28T02:29:52.517Z,68.24
2018-03-28T02:32:20.038Z,68.23
2018-03-28T02:34:47.542Z,68.07
2018-03-28T02:37:15.804Z,68.58
2018-03-28T02:39:43.297Z,68.41
2018-03-28T02:42:10.811Z,68.71
2018-03-28T02:44:39.453Z,68.77
2018-03-28T02:47:06.996Z,68.90
2018-03-28T02:49:34.490Z,68.98
2018-03-28T02:52:02.141Z,69.22
2018-03-28T02:54:29.714Z,69.06
2018-03-28T02:56:57.454Z,69.03
2018-03-28T02:59:25.780Z,69.48
2018-03-28T03:01:54.371Z,69.68
2018-03-28T03:04:21.966Z,69.64
2018-03-28T03:06:49.587Z,69.41
2018-03-28T03:09:17.113Z,69.37
2018-03-28T03:11:44.621Z,69.49
2018-03-28T03:14:12.186Z,69.10
2018-03-28T03:16:39.719Z,69.12
2018-03-28T03:19:07.464Z,69.01
2018-03-28T03:21:35.057Z,68.87
2018-03-28T03:24:04.952Z,68.86
2018-03-28T03:26:32.435Z,68.76
2018-03-28T03:29:00.533Z,68.83
2018-03-28T03:31:28.789Z,69.09
2018-03-28T03:33:56.328Z,69.71
2018-03-28T03:36:24.599Z,70.38
2018-03-28T03:38:52.157Z,70.91
2018-03-28T03:41:19.726Z,70.84
2018-03-28T03:43:47.243Z,71.23
2018-03-28T03:46:15.113Z,71.11
2018-03-28T03:48:42.630Z,70.95
2018-03-28T03:51:10.528Z,71.45
2018-03-28T03:53:38.022Z,71.05
2018-03-28T03:56:07.117Z,70.84
2018-03-28T03:58:35.112Z,70.66
2018-03-28T04:01:02.667Z,70.58
2018-03-28T04:03:30.231Z,71.28
2018-03-28T04:05:57.789Z,71.16
2018-03-28T04:08:25.367Z,71.00
2018-03-28T04:10:53.006Z,70.88
2018-03-28T04:13:20.523Z,70.51
2018-03-28T04:15:48.017Z,70.38
2018-03-28T04:18:15.793Z,70.02
2018-03-28T04:20:43.392Z,69.86
2018-03-28T04:23:11.073Z,70.04
2018-03-28T04:25:38.726Z,69.77
2018-03-28T04:28:06.313Z,69.93
2018-03-28T04:30:34.725Z,69.91
2018-03-28T04:33:02.363Z,70.19
2018-03-28T04:35:30.103Z,70.33
2018-03-28T04:37:57.705Z,70.06
2018-03-28T04:40:25.267Z,70.19
2018-03-28T04:42:52.869Z,70.38
2018-03-28T04:45:20.391Z,70.29
2018-03-28T04:47:48.072Z,69.99
2018-03-28T04:50:15.708Z,70.34
2018-03-28T04:52:48.229Z,70.38
2018-03-28T04:55:15.653Z,70.39
2018-03-28T04:57:43.900Z,70.52
2018-03-28T05:00:11.352Z,70.23
2018-03-28T05:02:48.510Z,70.34
2018-03-28T05:05:15.943Z,70.24
2018-03-28T05:07:43.464Z,70.13
2018-03-28T05:10:10.948Z,69.88
2018-03-28T05:12:38.488Z,69.90
2018-03-28T05:15:06.020Z,69.87
2018-03-28T05:17:33.518Z,69.84
2018-03-28T05:20:01.255Z,69.68
2018-03-28T05:22:28.939Z,70.17
2018-03-28T05:24:56.450Z,69.98
2018-03-28T05:27:24.020Z,70.25
2018-03-28T05:29:51.472Z,70.17
2018-03-28T05:32:18.986Z,69.98
2018-03-28T05:34:46.498Z,69.80
2018-03-28T05:37:15.551Z,69.77
2018-03-28T05:39:43.360Z,69.75
2018-03-28T05:42:10.998Z,70.44
2018-03-28T05:44:38.502Z,70.74
2018-03-28T05:47:06.082Z,70.84
2018-03-28T05:49:34.562Z,71.02
2018-03-28T05:52:02.772Z,71.00
2018-03-28T05:54:30.786Z,71.04
2018-03-28T05:56:58.317Z,70.73
2018-03-28T05:59:26.671Z,70.37
2018-03-28T06:01:54.334Z,70.71
2018-03-28T06:04:22.212Z,70.93
2018-03-28T06:06:50.165Z,70.76
2018-03-28T06:09:18.476Z,70.47
2018-03-28T06:11:46.172Z,70.87
2018-03-28T06:14:16.434Z,70.74
2018-03-28T06:16:44.112Z,70.87
2018-03-28T06:19:12.684Z,70.97
2018-03-28T06:21:41.666Z,70.94
2018-03-28T06:24:09.353Z,70.97
2018-03-28T06:26:36.892Z,70.76
2018-03-28T06:29:04.454Z,70.78
2018-03-28T06:31:32.407Z,70.68
2018-03-28T06:34:00.153Z,70.67
2018-03-28T06:36:27.926Z,70.61
2018-03-28T06:38:55.618Z,70.76
2018-03-28T06:41:23.193Z,70.81
2018-03-28T06:43:50.818Z,70.96
2018-03-28T06:46:18.395Z,71.08
2018-03-28T06:48:47.013Z,71.35
2018-03-28T06:51:14.642Z,71.18
2018-03-28T06:53:42.252Z,71.39
2018-03-28T06:56:09.938Z,71.88
2018-03-28T06:58:37.483Z,72.13
2018-03-28T07:01:05.028Z,72.46
2018-03-28T07:03:32.504Z,73.08
2018-03-28T07:06:00.106Z,73.03
2018-03-28T07:08:27.611Z,73.08
2018-03-28T07:10:55.293Z,74.07
2018-03-28T07:13:22.775Z,74.07
2018-03-28T07:15:50.612Z,74.54
2018-03-28T07:18:23.070Z,73.51
2018-03-28T07:20:50.615Z,73.96
2018-03-28T07:23:18.062Z,74.60
2018-03-28T07:25:45.556Z,74.58
2018-03-28T07:28:13.031Z,74.81
2018-03-28T07:30:40.598Z,74.98
2018-03-28T07:33:08.499Z,74.68
2018-03-28T07:35:36.014Z,74.56
2018-03-28T07:38:03.494Z,74.40
2018-03-28T07:40:31.857Z,74.59
2018-03-28T07:42:59.368Z,74.84
2018-03-28T07:45:26.898Z,75.10
2018-03-28T07:47:54.788Z,75.37
2018-03-28T07:50:22.316Z,75.82
2018-03-28T07:52:49.945Z,75.96
2018-03-28T07:55:17.640Z,76.36
2018-03-28T07:57:46.146Z,76.55
2018-03-28T08:00:13.648Z,77.00
2018-03-28T08:02:41.187Z,77.29
2018-03-28T08:05:08.672Z,77.26
2018-03-28T08:07:36.236Z,77.43
2018-03-28T08:10:04.108Z,77.52
2018-03-28T08:12:31.746Z,77.41
2018-03-28T08:15:00.098Z,77.64
2018-03-28T08:17:27.599Z,78.08
2018-03-28T08:19:55.058Z,78.04
2018-03-28T08:22:23.320Z,77.83
2018-03-28T08:24:53.542Z,78.10
2018-03-28T08:27:22.286Z,78.35
2018-03-28T08:29:49.842Z,78.41
2018-03-28T08:32:17.390Z,78.39
2018-03-28T08:34:45.097Z,78.37
2018-03-28T08:37:12.880Z,78.50
2018-03-28T08:39:40.416Z,78.26
2018-03-28T08:42:08.209Z,78.80
2018-03-28T08:44:35.742Z,78.74
2018-03-28T08:47:03.318Z,78.57
2018-03-28T08:49:30.783Z,78.50
2018-03-28T08:51:58.260Z,78.69
2018-03-28T08:54:25.772Z,78.48
2018-03-28T08:56:53.230Z,78.41
2018-03-28T08:59:20.784Z,78.43
2018-03-28T09:07:33.328Z,78.01
2018-03-28T09:10:00.846Z,78.07
2018-03-28T09:12:28.376Z,77.86
2018-03-28T09:14:55.852Z,77.45
2018-03-28T09:17:23.372Z,77.24
2018-03-28T09:19:50.925Z,77.17
2018-03-28T09:22:18.462Z,77.51
2018-03-28T09:24:45.990Z,77.42
2018-03-28T09:27:14.564Z,77.64
2018-03-28T09:29:42.133Z,77.53
2018-03-28T09:32:09.673Z,77.31
2018-03-28T09:34:37.210Z,77.44
2018-03-28T09:37:05.618Z,77.53
2018-03-28T09:39:33.387Z,77.82
2018-03-28T09:42:05.006Z,77.97
2018-03-28T09:44:33.185Z,77.38
2018-03-28T09:47:00.794Z,77.53
2018-03-28T09:49:28.324Z,77.83
2018-03-28T09:51:56.131Z,77.62
2018-03-28T09:54:26.334Z,77.82
2018-03-28T09:56:53.872Z,78.08
2018-03-28T09:59:21.386Z,78.41
2018-03-28T10:01:54.742Z,78.17
2018-03-28T10:04:22.282Z,77.72
2018-03-28T10:06:50.017Z,77.42
2018-03-28T10:09:17.716Z,77.51
2018-03-28T10:12:08.935Z,77.78
2018-03-28T10:14:36.633Z,77.59
2018-03-28T10:17:06.009Z,77.53
2018-03-28T10:19:33.533Z,77.67
2018-03-28T10:22:02.015Z,77.76
2018-03-28T10:24:30.884Z,77.98
2018-03-28T10:26:58.358Z,77.81
2018-03-28T10:29:25.947Z,78.14
2018-03-28T10:31:53.423Z,77.93
2018-03-28T10:34:21.069Z,77.90
2018-03-28T10:36:48.528Z,77.90
2018-03-28T10:39:16.059Z,78.05
2018-03-28T10:41:53.224Z,77.95
2018-03-28T10:44:20.659Z,78.05
2018-03-28T10:46:48.475Z,78.18
2018-03-28T10:49:16.024Z,78.05
2018-03-28T10:51:43.614Z,78.09
2018-03-28T10:54:11.082Z,77.72
2018-03-28T10:56:38.677Z,77.75
2018-03-28T10:59:06.878Z,77.54
2018-03-28T11:01:34.426Z,77.39
2018-03-28T11:04:01.879Z,77.35
2018-03-28T11:06:29.607Z,77.09
2018-03-28T11:08:57.813Z,76.95
2018-03-28T11:11:25.466Z,76.92
2018-03-28T11:13:53.065Z,76.84
2018-03-28T11:16:20.857Z,76.48
2018-03-28T11:18:48.521Z,76.62
2018-03-28T11:21:22.317Z,76.84
2018-03-28T11:23:49.927Z,77.09
2018-03-28T11:26:17.755Z,77.19
2018-03-28T11:28:47.048Z,77.13
2018-03-28T11:34:21.755Z,77.10
2018-03-28T11:36:49.427Z,77.07
2018-03-28T11:39:17.335Z,77.26
2018-03-28T11:42:04.167Z,77.22
2018-03-28T11:44:31.975Z,77.35
2018-03-28T11:46:59.981Z,77.34
2018-03-28T11:49:27.473Z,77.49
2018-03-28T11:51:54.952Z,77.53
2018-03-28T11:54:23.263Z,77.56
2018-03-28T11:56:52.507Z,77.54
2018-03-28T11:59:21.019Z,77.80
2018-03-28T12:01:49.475Z,77.76
2018-03-28T12:04:17.110Z,77.59
2018-03-28T12:06:44.888Z,77.95
2018-03-28T12:09:12.375Z,78.70
2018-03-28T12:11:39.886Z,79.56
2018-03-28T12:14:08.835Z,80.56
2018-03-28T12:16:36.475Z,81.92
2018-03-28T12:19:04.369Z,82.66
2018-03-28T12:24:30.054Z,82.78
2018-03-28T12:26:57.577Z,82.74
2018-03-28T12:29:25.497Z,83.27
2018-03-28T12:32:02.905Z,83.59
2018-03-28T12:34:30.402Z,84.01
2018-03-28T12:36:57.948Z,84.33
2018-03-28T12:39:26.195Z,84.53
2018-03-28T12:42:13.233Z,84.90
2018-03-28T12:44:40.784Z,85.47
2018-03-28T12:47:09.691Z,85.54
2018-03-28T12:49:37.538Z,85.03
2018-03-28T12:52:05.488Z,85.06
2018-03-28T12:54:33.894Z,85.03
2018-03-28T12:57:06.959Z,85.01
2018-03-28T12:59:35.485Z,84.85
2018-03-28T13:02:02.939Z,84.74
2018-03-28T13:04:30.509Z,84.47
2018-03-28T13:06:58.066Z,84.18
2018-03-28T13:09:25.741Z,83.66
2018-03-28T13:11:53.468Z,83.39
2018-03-28T13:14:21.699Z,83.03
2018-03-28T13:16:50.058Z,82.90
2018-03-28T13:19:17.942Z,83.11
2018-03-28T13:21:47.182Z,83.32
2018-03-28T13:24:14.727Z,82.94
2018-03-28T13:26:43.321Z,82.92
2018-03-28T13:29:11.125Z,82.60
2018-03-28T13:31:38.702Z,82.08
2018-03-28T13:34:08.050Z,81.56
2018-03-28T13:36:35.804Z,81.03
2018-03-28T13:39:04.153Z,80.76
2018-03-28T13:41:31.719Z,80.65
2018-03-28T13:43:59.244Z,80.64
2018-03-28T13:46:26.998Z,80.52
2018-03-28T13:48:54.832Z,80.42
2018-03-28T13:51:22.436Z,80.54
2018-03-28T13:53:49.880Z,79.39
2018-03-28T13:56:17.418Z,78.94
2018-03-28T13:58:45.100Z,78.87
2018-03-28T14:01:13.393Z,78.70
2018-03-28T14:03:41.090Z,78.45
2018-03-28T14:06:08.573Z,78.59
2018-03-28T14:08:36.131Z,78.33
2018-03-28T14:11:04.475Z,77.31
2018-03-28T14:13:32.072Z,77.56
2018-03-28T14:15:59.544Z,77.99
2018-03-28T14:18:27.214Z,78.33
2018-03-28T14:20:54.680Z,78.54
2018-03-28T14:23:27.238Z,78.76
2018-03-28T14:25:54.712Z,79.17
2018-03-28T14:28:22.435Z,79.76
2018-03-28T14:30:49.994Z,80.15
2018-03-28T14:33:17.482Z,80.26
2018-03-28T14:35:45.093Z,80.26
2018-03-28T14:38:12.684Z,80.72
2018-03-28T14:40:40.996Z,80.94
2018-03-28T14:43:08.492Z,81.16
2018-03-28T14:45:36.012Z,81.08
2018-03-28T14:48:03.672Z,81.29
2018-03-28T14:50:31.241Z,81.42
2018-03-28T14:52:58.880Z,81.18
2018-03-28T14:55:26.832Z,80.94
2018-03-28T14:57:54.358Z,80.83
2018-03-28T15:00:21.864Z,80.93
2018-03-28T15:03:13.068Z,80.72
2018-03-28T15:05:40.664Z,80.56
2018-03-28T15:08:08.192Z,80.57
2018-03-28T15:10:35.831Z,80.67
2018-03-28T15:13:03.324Z,80.32
2018-03-28T15:15:30.814Z,81.06
2018-03-28T15:17:58.292Z,81.26
2018-03-28T15:20:25.836Z,81.86
2018-03-28T15:22:53.337Z,82.31
2018-03-28T15:25:21.036Z,81.99
2018-03-28T15:27:49.343Z,81.96
2018-03-28T15:30:16.816Z,81.91
2018-03-28T15:32:44.314Z,82.26
2018-03-28T15:35:11.870Z,82.26
2018-03-28T15:37:39.591Z,82.58
2018-03-28T15:40:07.630Z,82.80
2018-03-28T15:42:45.587Z,82.60
2018-03-28T15:45:13.135Z,82.82
2018-03-28T15:47:40.854Z,82.82
2018-03-28T15:50:08.578Z,82.98
2018-03-28T15:52:36.291Z,83.00
2018-03-28T15:55:03.754Z,83.13
2018-03-28T15:57:31.239Z,83.13
2018-03-28T15:59:58.770Z,83.31
2018-03-28T16:02:26.274Z,83.61
2018-03-28T16:04:54.077Z,83.57
2018-03-28T16:07:21.571Z,83.59
2018-03-28T16:09:49.393Z,83.53
2018-03-28T16:12:17.096Z,83.77
2018-03-28T16:14:44.622Z,83.67
2018-03-28T16:17:19.852Z,83.74
2018-03-28T16:19:47.559Z,83.87
2018-03-28T16:25:12.650Z,84.04
2018-03-28T16:27:40.173Z,84.08
2018-03-28T16:30:08.921Z,83.95
2018-03-28T16:32:37.000Z,83.86
2018-03-28T16:35:04.724Z,83.81
2018-03-28T16:37:32.559Z,83.89
2018-03-28T16:40:00.338Z,84.16
2018-03-28T16:42:32.886Z,84.20
2018-03-28T16:45:00.674Z,84.16
2018-03-28T16:47:28.260Z,84.47
2018-03-28T16:49:55.766Z,84.61
2018-03-28T17:07:09.532Z,85.13
2018-03-28T17:09:37.323Z,85.27
2018-03-28T17:12:05.181Z,85.30
2018-03-28T17:14:32.639Z,85.38
2018-03-28T17:17:02.879Z,85.48
2018-03-28T17:19:30.458Z,85.39
2018-03-28T17:21:59.293Z,85.41
2018-03-28T17:24:26.852Z,85.71
2018-03-28T17:26:54.412Z,85.90
2018-03-28T17:29:22.220Z,86.02
2018-03-28T17:31:50.644Z,85.90
2018-03-28T17:34:18.117Z,86.00
2018-03-28T17:36:45.593Z,86.14
2018-03-28T17:39:13.388Z,86.41
2018-03-28T17:41:41.106Z,86.33
2018-03-28T17:44:09.057Z,86.26
2018-03-28T17:46:36.577Z,86.22
2018-03-28T17:49:04.073Z,86.92
2018-03-28T17:51:31.547Z,86.58
2018-03-28T17:53:59.062Z,86.84
2018-03-28T17:56:26.612Z,87.00
2018-03-28T17:58:54.118Z,86.98
2018-03-28T18:01:22.272Z,87.17
2018-03-28T18:03:49.762Z,87.24
2018-03-28T18:06:17.504Z,87.65
2018-03-28T18:08:45.267Z,87.45
2018-03-28T18:11:12.964Z,87.73
2018-03-28T18:13:40.540Z,87.84
2018-03-28T18:16:08.765Z,88.01
2018-03-28T18:18:36.249Z,88.28
2018-03-28T18:21:04.112Z,88.42
2018-03-28T18:23:31.755Z,88.50
2018-03-28T18:25:59.306Z,88.67
2018-03-28T18:28:27.708Z,88.76
2018-03-28T18:30:55.282Z,88.67
2018-03-28T18:33:22.846Z,89.09
2018-03-28T18:35:50.350Z,89.46
2018-03-28T18:38:17.883Z,89.30
2018-03-28T18:40:45.410Z,89.22
2018-03-28T18:43:13.150Z,89.11
2018-03-28T18:45:40.888Z,89.17
2018-03-28T18:48:08.479Z,89.23
2018-03-28T18:50:36.249Z,89.21
2018-03-28T18:53:08.738Z,89.35
2018-03-28T18:55:36.298Z,89.47
2018-03-28T18:58:04.005Z,89.36
2018-03-28T19:00:31.627Z,89.49
2018-03-28T19:02:59.191Z,89.46
2018-03-28T19:05:26.859Z,89.30
2018-03-28T19:07:54.359Z,89.50
2018-03-28T19:10:22.323Z,89.39
2018-03-28T19:12:49.764Z,89.50
2018-03-28T19:15:17.307Z,89.47
2018-03-28T19:17:44.907Z,89.62
2018-03-28T19:20:12.696Z,89.60
2018-03-28T19:22:40.450Z,89.91
2018-03-28T19:25:08.028Z,89.92
2018-03-28T19:27:35.731Z,89.98
2018-03-28T19:30:03.218Z,89.92
2018-03-28T19:32:30.785Z,89.82
2018-03-28T19:34:58.336Z,89.98
2018-03-28T19:37:25.861Z,90.22
2018-03-28T19:39:54.312Z,90.37
2018-03-28T19:42:21.847Z,90.24
2018-03-28T19:44:49.428Z,90.16
2018-03-28T19:47:17.250Z,90.30
2018-03-28T19:49:44.995Z,90.68
2018-03-28T19:55:05.350Z,90.50
2018-03-28T19:57:33.606Z,90.59
2018-03-28T20:00:01.289Z,90.49
2018-03-28T20:02:28.823Z,90.35
2018-03-28T20:05:02.332Z,90.54
2018-03-28T20:07:29.871Z,90.65
2018-03-28T20:09:57.435Z,91.03
2018-03-28T20:12:24.929Z,91.01
2018-03-28T20:14:53.308Z,91.00
2018-03-28T20:17:20.840Z,91.05
2018-03-28T20:19:48.399Z,91.05
2018-03-28T20:22:15.943Z,91.20
2018-03-28T20:24:43.546Z,90.95
2018-03-28T20:27:11.077Z,90.78
2018-03-28T20:29:38.868Z,90.67
2018-03-28T20:32:06.597Z,90.59
2018-03-28T20:34:34.137Z,90.52
2018-03-28T20:37:01.700Z,90.41
2018-03-28T20:39:29.261Z,90.35
2018-03-28T20:41:56.785Z,90.27
2018-03-28T20:44:24.332Z,90.17
2018-03-28T20:46:51.853Z,90.27
2018-03-28T20:49:19.322Z,90.07
2018-03-28T20:51:46.838Z,90.01
2018-03-28T20:54:15.191Z,90.01
2018-03-28T20:56:42.659Z,90.14
2018-03-28T20:59:11.250Z,89.99
2018-03-28T21:01:38.786Z,89.56
2018-03-28T21:04:06.319Z,89.70
2018-03-28T21:06:33.809Z,89.68
2018-03-28T21:09:01.384Z,89.59
2018-03-28T21:11:33.850Z,89.37
2018-03-28T21:14:01.440Z,89.26
2018-03-28T21:16:28.927Z,89.14
2018-03-28T21:18:56.434Z,89.04
2018-03-28T21:21:23.955Z,88.73
2018-03-28T21:23:51.457Z,88.50
2018-03-28T21:26:19.170Z,88.25
2018-03-28T21:28:46.634Z,88.25
2018-03-28T21:31:14.097Z,88.19
2018-03-28T21:33:41.817Z,88.05
2018-03-28T21:36:13.303Z,88.06
2018-03-28T21:38:40.824Z,87.63
2018-03-28T21:41:08.344Z,87.51
2018-03-28T21:43:35.849Z,87.33
2018-03-28T21:46:03.348Z,87.26
2018-03-28T21:48:31.364Z,86.79
2018-03-28T21:50:58.897Z,86.67
2018-03-28T21:53:26.762Z,86.31
2018-03-28T21:55:54.273Z,85.94
2018-03-28T21:58:21.787Z,85.76
2018-03-28T22:00:49.257Z,85.31
2018-03-28T22:03:16.729Z,85.20
2018-03-28T22:05:44.219Z,84.95
2018-03-28T22:08:11.709Z,84.92
2018-03-28T22:10:39.238Z,85.00
2018-03-28T22:13:06.730Z,85.01
2018-03-28T22:15:34.178Z,85.07
2018-03-28T22:18:01.897Z,85.10
2018-03-28T22:20:29.349Z,85.02
2018-03-28T22:22:57.442Z,84.71
2018-03-28T22:25:24.990Z,84.52
2018-03-28T22:27:52.456Z,84.46
2018-03-28T22:30:19.935Z,84.67
2018-03-28T22:32:47.571Z,84.84
2018-03-28T22:35:15.069Z,85.09
2018-03-28T22:37:42.595Z,85.48
2018-03-28T22:40:10.474Z,85.81
2018-03-28T22:42:47.590Z,85.98
2018-03-28T22:45:15.193Z,86.20
2018-03-28T22:47:42.649Z,86.36
2018-03-28T22:50:10.117Z,86.37
2018-03-28T22:52:37.877Z,86.48
2018-03-28T22:55:05.481Z,86.55
2018-03-28T22:57:33.505Z,86.77
2018-03-28T23:00:01.074Z,86.91
2018-03-28T23:02:28.536Z,87.02
2018-03-28T23:04:56.215Z,87.23
2018-03-28T23:07:23.662Z,87.24
2018-03-28T23:09:51.255Z,87.43
2018-03-28T23:12:18.968Z,87.59
2018-03-28T23:14:46.456Z,87.80
2018-03-28T23:17:14.288Z,87.82
2018-03-28T23:19:41.772Z,88.13
2018-03-28T23:22:23.460Z,88.17
2018-03-28T23:24:50.958Z,88.00
2018-03-28T23:27:18.519Z,88.06
2018-03-28T23:29:45.964Z,88.20
2018-03-28T23:32:13.486Z,88.22
2018-03-28T23:34:41.029Z,88.13
2018-03-28T23:37:08.495Z,88.34
2018-03-28T23:39:35.980Z,88.26
2018-03-28T23:42:03.744Z,88.11
2018-03-28T23:44:31.198Z,87.96
2018-03-28T23:46:58.821Z,88.03
2018-03-28T23:49:26.326Z,87.91
2018-03-28T23:51:53.785Z,87.96
2018-03-28T23:54:21.273Z,88.06
2018-03-28T23:56:48.738Z,88.10
2018-03-28T23:59:16.224Z,88.22
